sensor_id;sensor_type;location;lat;lon;timestamp;temperature;humidity
17307;DHT22;8771;48.048;7.682;2023-04-16T00:03:45;11.40;61.50
17307;DHT22;8771;48.048;7.682;2023-04-16T00:08:47;11.40;61.50
17307;DHT22;8771;48.048;7.682;2023-04-16T00:13:51;11.40;61.50
17307;DHT22;8771;48.048;7.682;2023-04-16T00:18:53;11.30;61.50
17307;DHT22;8771;48.048;7.682;2023-04-16T00:23:55;11.40;61.60
17307;DHT22;8771;48.048;7.682;2023-04-16T00:28:58;11.50;61.50
17307;DHT22;8771;48.048;7.682;2023-04-16T00:34:00;11.60;61.40
17307;DHT22;8771;48.048;7.682;2023-04-16T00:39:02;11.60;61.30
17307;DHT22;8771;48.048;7.682;2023-04-16T00:44:05;11.70;61.30
17307;DHT22;8771;48.048;7.682;2023-04-16T00:49:08;11.70;61.30
17307;DHT22;8771;48.048;7.682;2023-04-16T00:54:10;11.80;61.40
17307;DHT22;8771;48.048;7.682;2023-04-16T00:59:14;11.80;61.50
17307;DHT22;8771;48.048;7.682;2023-04-16T01:04:16;11.80;61.40
17307;DHT22;8771;48.048;7.682;2023-04-16T01:09:18;11.90;61.40
17307;DHT22;8771;48.048;7.682;2023-04-16T01:14:21;12.00;61.40
17307;DHT22;8771;48.048;7.682;2023-04-16T01:19:23;12.00;61.40
17307;DHT22;8771;48.048;7.682;2023-04-16T01:24:26;12.00;61.40
17307;DHT22;8771;48.048;7.682;2023-04-16T01:29:28;12.00;61.50
17307;DHT22;8771;48.048;7.682;2023-04-16T01:34:30;12.10;61.60
17307;DHT22;8771;48.048;7.682;2023-04-16T01:39:33;12.10;61.60
17307;DHT22;8771;48.048;7.682;2023-04-16T01:44:35;12.10;61.60
17307;DHT22;8771;48.048;7.682;2023-04-16T01:49:38;12.10;61.60
17307;DHT22;8771;48.048;7.682;2023-04-16T01:54:41;12.10;61.60
17307;DHT22;8771;48.048;7.682;2023-04-16T01:59:43;12.20;61.70
17307;DHT22;8771;48.048;7.682;2023-04-16T02:04:45;12.10;61.70
17307;DHT22;8771;48.048;7.682;2023-04-16T02:09:49;12.10;61.90
17307;DHT22;8771;48.048;7.682;2023-04-16T02:14:51;12.10;61.90
17307;DHT22;8771;48.048;7.682;2023-04-16T02:19:53;12.10;61.90
17307;DHT22;8771;48.048;7.682;2023-04-16T02:24:56;12.10;61.90
17307;DHT22;8771;48.048;7.682;2023-04-16T02:29:58;12.00;62.10
17307;DHT22;8771;48.048;7.682;2023-04-16T02:35:00;11.90;62.20
17307;DHT22;8771;48.048;7.682;2023-04-16T02:40:06;11.80;62.30
17307;DHT22;8771;48.048;7.682;2023-04-16T02:45:09;11.80;62.50
17307;DHT22;8771;48.048;7.682;2023-04-16T02:50:11;11.80;62.40
17307;DHT22;8771;48.048;7.682;2023-04-16T02:55:15;11.80;62.30
17307;DHT22;8771;48.048;7.682;2023-04-16T03:00:17;11.90;63.10
17307;DHT22;8771;48.048;7.682;2023-04-16T03:05:19;11.80;62.30
17307;DHT22;8771;48.048;7.682;2023-04-16T03:10:22;11.80;62.40
17307;DHT22;8771;48.048;7.682;2023-04-16T03:15:24;11.90;62.30
17307;DHT22;8771;48.048;7.682;2023-04-16T03:20:26;11.90;62.30
17307;DHT22;8771;48.048;7.682;2023-04-16T03:25:30;11.90;62.20
17307;DHT22;8771;48.048;7.682;2023-04-16T03:30:32;12.00;62.20
17307;DHT22;8771;48.048;7.682;2023-04-16T03:35:34;12.00;62.30
17307;DHT22;8771;48.048;7.682;2023-04-16T03:40:38;12.00;62.20
17307;DHT22;8771;48.048;7.682;2023-04-16T03:45:43;12.10;62.30
17307;DHT22;8771;48.048;7.682;2023-04-16T03:50:45;12.10;62.40
17307;DHT22;8771;48.048;7.682;2023-04-16T03:55:50;12.10;62.40
17307;DHT22;8771;48.048;7.682;2023-04-16T04:00:52;12.00;62.40
17307;DHT22;8771;48.048;7.682;2023-04-16T04:05:54;12.10;62.50
17307;DHT22;8771;48.048;7.682;2023-04-16T04:10:57;12.00;62.50
17307;DHT22;8771;48.048;7.682;2023-04-16T04:16:00;12.10;62.60
17307;DHT22;8771;48.048;7.682;2023-04-16T04:21:04;12.10;62.60
17307;DHT22;8771;48.048;7.682;2023-04-16T04:26:08;12.10;62.70
17307;DHT22;8771;48.048;7.682;2023-04-16T04:31:10;12.10;62.80
17307;DHT22;8771;48.048;7.682;2023-04-16T04:36:12;12.10;62.80
17307;DHT22;8771;48.048;7.682;2023-04-16T04:41:16;12.10;62.80
17307;DHT22;8771;48.048;7.682;2023-04-16T04:46:18;12.00;62.80
17307;DHT22;8771;48.048;7.682;2023-04-16T04:51:20;12.00;62.80
17307;DHT22;8771;48.048;7.682;2023-04-16T04:56:23;12.00;62.80
17307;DHT22;8771;48.048;7.682;2023-04-16T05:01:25;12.00;62.90
17307;DHT22;8771;48.048;7.682;2023-04-16T05:06:27;12.00;62.90
17307;DHT22;8771;48.048;7.682;2023-04-16T05:11:32;12.00;62.90
17307;DHT22;8771;48.048;7.682;2023-04-16T05:16:35;12.00;62.90
17307;DHT22;8771;48.048;7.682;2023-04-16T05:21:37;12.00;62.90
17307;DHT22;8771;48.048;7.682;2023-04-16T05:26:40;12.00;63.00
17307;DHT22;8771;48.048;7.682;2023-04-16T05:31:42;12.00;63.10
17307;DHT22;8771;48.048;7.682;2023-04-16T05:36:45;12.10;63.10
17307;DHT22;8771;48.048;7.682;2023-04-16T05:41:48;12.10;63.10
17307;DHT22;8771;48.048;7.682;2023-04-16T05:46:50;12.10;63.20
17307;DHT22;8771;48.048;7.682;2023-04-16T05:51:52;12.00;63.20
17307;DHT22;8771;48.048;7.682;2023-04-16T05:56:55;12.00;63.20
17307;DHT22;8771;48.048;7.682;2023-04-16T06:01:57;12.00;63.30
17307;DHT22;8771;48.048;7.682;2023-04-16T06:06:59;12.00;63.40
17307;DHT22;8771;48.048;7.682;2023-04-16T06:12:03;12.10;63.40
17307;DHT22;8771;48.048;7.682;2023-04-16T06:17:05;12.10;63.40
17307;DHT22;8771;48.048;7.682;2023-04-16T06:22:07;12.10;63.40
17307;DHT22;8771;48.048;7.682;2023-04-16T06:27:10;12.10;63.50
17307;DHT22;8771;48.048;7.682;2023-04-16T06:32:12;12.10;63.40
17307;DHT22;8771;48.048;7.682;2023-04-16T06:37:14;12.10;63.40
17307;DHT22;8771;48.048;7.682;2023-04-16T06:42:17;12.10;63.40
17307;DHT22;8771;48.048;7.682;2023-04-16T06:47:19;12.10;63.50
17307;DHT22;8771;48.048;7.682;2023-04-16T06:52:21;12.10;63.50
17307;DHT22;8771;48.048;7.682;2023-04-16T06:57:24;12.10;63.50
17307;DHT22;8771;48.048;7.682;2023-04-16T07:02:26;12.10;63.50
17307;DHT22;8771;48.048;7.682;2023-04-16T07:07:28;12.10;63.50
17307;DHT22;8771;48.048;7.682;2023-04-16T07:12:32;12.10;63.60
17307;DHT22;8771;48.048;7.682;2023-04-16T07:17:34;12.00;63.80
17307;DHT22;8771;48.048;7.682;2023-04-16T07:22:35;11.90;63.80
17307;DHT22;8771;48.048;7.682;2023-04-16T07:27:39;11.80;64.00
17307;DHT22;8771;48.048;7.682;2023-04-16T07:32:41;11.70;64.00
17307;DHT22;8771;48.048;7.682;2023-04-16T07:37:42;11.70;64.10
17307;DHT22;8771;48.048;7.682;2023-04-16T07:42:46;11.60;64.10
17307;DHT22;8771;48.048;7.682;2023-04-16T07:47:48;11.60;64.20
17307;DHT22;8771;48.048;7.682;2023-04-16T07:52:50;11.50;64.20
17307;DHT22;8771;48.048;7.682;2023-04-16T07:57:53;11.50;64.20
17307;DHT22;8771;48.048;7.682;2023-04-16T08:02:55;11.40;64.30
17307;DHT22;8771;48.048;7.682;2023-04-16T08:07:57;11.30;64.20
17307;DHT22;8771;48.048;7.682;2023-04-16T08:13:01;11.30;64.40
17307;DHT22;8771;48.048;7.682;2023-04-16T08:18:03;11.40;65.10
17307;DHT22;8771;48.048;7.682;2023-04-16T08:23:05;11.40;64.20
17307;DHT22;8771;48.048;7.682;2023-04-16T08:28:08;11.40;64.20
17307;DHT22;8771;48.048;7.682;2023-04-16T08:33:10;11.50;64.20
17307;DHT22;8771;48.048;7.682;2023-04-16T08:38:13;11.50;64.00
17307;DHT22;8771;48.048;7.682;2023-04-16T08:43:18;11.60;64.10
17307;DHT22;8771;48.048;7.682;2023-04-16T08:48:23;11.50;64.10
17307;DHT22;8771;48.048;7.682;2023-04-16T08:53:31;11.60;64.10
17307;DHT22;8771;48.048;7.682;2023-04-16T08:58:36;11.60;64.10
17307;DHT22;8771;48.048;7.682;2023-04-16T09:03:39;11.60;63.90
17307;DHT22;8771;48.048;7.682;2023-04-16T09:08:43;11.60;63.90
17307;DHT22;8771;48.048;7.682;2023-04-16T09:13:46;11.50;63.90
17307;DHT22;8771;48.048;7.682;2023-04-16T09:18:48;11.50;63.90
17307;DHT22;8771;48.048;7.682;2023-04-16T09:23:52;11.30;64.10
17307;DHT22;8771;48.048;7.682;2023-04-16T09:28:55;11.30;64.10
17307;DHT22;8771;48.048;7.682;2023-04-16T09:34:01;11.30;64.10
17307;DHT22;8771;48.048;7.682;2023-04-16T09:39:03;11.30;64.10
17307;DHT22;8771;48.048;7.682;2023-04-16T09:44:07;11.30;64.10
17307;DHT22;8771;48.048;7.682;2023-04-16T09:49:12;11.30;64.10
17307;DHT22;8771;48.048;7.682;2023-04-16T09:54:15;11.30;64.10
17307;DHT22;8771;48.048;7.682;2023-04-16T09:59:19;11.20;64.10
17307;DHT22;8771;48.048;7.682;2023-04-16T10:04:21;11.10;64.20
17307;DHT22;8771;48.048;7.682;2023-04-16T10:09:23;11.10;64.40
17307;DHT22;8771;48.048;7.682;2023-04-16T10:14:26;11.00;64.40
17307;DHT22;8771;48.048;7.682;2023-04-16T10:19:28;11.00;64.50
17307;DHT22;8771;48.048;7.682;2023-04-16T10:24:33;11.00;64.50
17307;DHT22;8771;48.048;7.682;2023-04-16T10:29:36;11.10;64.50
17307;DHT22;8771;48.048;7.682;2023-04-16T10:34:39;11.10;64.40
17307;DHT22;8771;48.048;7.682;2023-04-16T10:39:41;11.20;64.40
17307;DHT22;8771;48.048;7.682;2023-04-16T10:44:45;11.20;64.40
17307;DHT22;8771;48.048;7.682;2023-04-16T10:49:47;11.20;64.40
17307;DHT22;8771;48.048;7.682;2023-04-16T10:54:51;11.30;65.10
17307;DHT22;8771;48.048;7.682;2023-04-16T10:59:56;11.30;64.20
17307;DHT22;8771;48.048;7.682;2023-04-16T11:05:00;11.40;64.20
17307;DHT22;8771;48.048;7.682;2023-04-16T11:10:04;11.50;64.10
17307;DHT22;8771;48.048;7.682;2023-04-16T11:15:09;11.70;63.90
17307;DHT22;8771;48.048;7.682;2023-04-16T11:20:15;11.90;63.70
17307;DHT22;8771;48.048;7.682;2023-04-16T11:25:20;12.20;63.50
17307;DHT22;8771;48.048;7.682;2023-04-16T11:30:29;12.50;63.20
17307;DHT22;8771;48.048;7.682;2023-04-16T11:35:32;12.70;63.10
17307;DHT22;8771;48.048;7.682;2023-04-16T11:40:34;12.80;63.00
17307;DHT22;8771;48.048;7.682;2023-04-16T11:45:38;13.00;63.10
17307;DHT22;8771;48.048;7.682;2023-04-16T11:50:40;13.10;63.00
17307;DHT22;8771;48.048;7.682;2023-04-16T11:55:43;13.20;63.00
17307;DHT22;8771;48.048;7.682;2023-04-16T12:00:46;13.40;63.00
17307;DHT22;8771;48.048;7.682;2023-04-16T12:05:49;13.50;63.00
17307;DHT22;8771;48.048;7.682;2023-04-16T12:10:54;13.60;62.90
17307;DHT22;8771;48.048;7.682;2023-04-16T12:15:57;13.50;63.00
17307;DHT22;8771;48.048;7.682;2023-04-16T12:21:03;13.40;63.20
17307;DHT22;8771;48.048;7.682;2023-04-16T12:26:07;13.50;63.30
17307;DHT22;8771;48.048;7.682;2023-04-16T12:31:13;13.50;63.50
17307;DHT22;8771;48.048;7.682;2023-04-16T12:36:19;13.40;63.40
17307;DHT22;8771;48.048;7.682;2023-04-16T12:41:21;13.50;63.50
17307;DHT22;8771;48.048;7.682;2023-04-16T12:46:24;13.50;63.40
17307;DHT22;8771;48.048;7.682;2023-04-16T12:51:26;13.40;63.50
17307;DHT22;8771;48.048;7.682;2023-04-16T12:56:29;13.40;63.50
17307;DHT22;8771;48.048;7.682;2023-04-16T13:01:33;13.40;63.50
17307;DHT22;8771;48.048;7.682;2023-04-16T13:06:37;13.50;63.50
17307;DHT22;8771;48.048;7.682;2023-04-16T13:11:39;13.60;63.40
17307;DHT22;8771;48.048;7.682;2023-04-16T13:16:42;13.80;63.20
17307;DHT22;8771;48.048;7.682;2023-04-16T13:21:44;14.10;62.80
17307;DHT22;8771;48.048;7.682;2023-04-16T13:26:46;14.40;62.30
17307;DHT22;8771;48.048;7.682;2023-04-16T13:31:50;14.70;62.10
17307;DHT22;8771;48.048;7.682;2023-04-16T13:36:52;14.90;61.90
17307;DHT22;8771;48.048;7.682;2023-04-16T13:41:54;15.00;61.90
17307;DHT22;8771;48.048;7.682;2023-04-16T13:46:57;15.20;61.70
17307;DHT22;8771;48.048;7.682;2023-04-16T13:52:00;15.10;61.70
17307;DHT22;8771;48.048;7.682;2023-04-16T13:57:01;15.00;61.90
17307;DHT22;8771;48.048;7.682;2023-04-16T14:02:05;15.00;62.10
17307;DHT22;8771;48.048;7.682;2023-04-16T14:07:07;14.80;62.20
17307;DHT22;8771;48.048;7.682;2023-04-16T14:12:09;14.60;62.70
17307;DHT22;8771;48.048;7.682;2023-04-16T14:17:12;14.30;62.90
17307;DHT22;8771;48.048;7.682;2023-04-16T14:22:14;14.20;63.20
17307;DHT22;8771;48.048;7.682;2023-04-16T14:27:17;14.10;63.40
17307;DHT22;8771;48.048;7.682;2023-04-16T14:32:20;13.90;63.50
17307;DHT22;8771;48.048;7.682;2023-04-16T14:37:22;13.70;63.60
17307;DHT22;8771;48.048;7.682;2023-04-16T14:42:25;13.60;63.60
17307;DHT22;8771;48.048;7.682;2023-04-16T14:47:29;13.70;63.60
17307;DHT22;8771;48.048;7.682;2023-04-16T14:52:31;13.70;63.70
17307;DHT22;8771;48.048;7.682;2023-04-16T14:57:34;13.70;63.40
17307;DHT22;8771;48.048;7.682;2023-04-16T15:02:39;13.80;63.40
17307;DHT22;8771;48.048;7.682;2023-04-16T15:07:41;13.70;63.30
17307;DHT22;8771;48.048;7.682;2023-04-16T15:12:43;13.70;63.50
17307;DHT22;8771;48.048;7.682;2023-04-16T15:17:46;13.70;63.50
17307;DHT22;8771;48.048;7.682;2023-04-16T15:22:49;13.60;63.50
17307;DHT22;8771;48.048;7.682;2023-04-16T15:27:51;13.50;63.60
17307;DHT22;8771;48.048;7.682;2023-04-16T15:32:55;13.40;63.80
17307;DHT22;8771;48.048;7.682;2023-04-16T15:37:56;13.30;63.90
17307;DHT22;8771;48.048;7.682;2023-04-16T15:42:58;13.20;64.00
17307;DHT22;8771;48.048;7.682;2023-04-16T15:48:02;13.00;64.10
17307;DHT22;8771;48.048;7.682;2023-04-16T15:53:05;13.00;65.00
17307;DHT22;8771;48.048;7.682;2023-04-16T15:58:07;13.00;64.30
17307;DHT22;8771;48.048;7.682;2023-04-16T16:03:10;13.00;64.30
17307;DHT22;8771;48.048;7.682;2023-04-16T16:08:13;13.10;64.20
17307;DHT22;8771;48.048;7.682;2023-04-16T16:13:15;13.10;64.20
17307;DHT22;8771;48.048;7.682;2023-04-16T16:18:19;13.10;64.10
17307;DHT22;8771;48.048;7.682;2023-04-16T16:23:21;13.10;64.10
17307;DHT22;8771;48.048;7.682;2023-04-16T16:28:23;13.10;64.10
17307;DHT22;8771;48.048;7.682;2023-04-16T16:33:27;13.20;64.10
17307;DHT22;8771;48.048;7.682;2023-04-16T16:38:29;13.10;64.10
17307;DHT22;8771;48.048;7.682;2023-04-16T16:43:31;13.00;64.20
17307;DHT22;8771;48.048;7.682;2023-04-16T16:48:34;13.00;64.40
17307;DHT22;8771;48.048;7.682;2023-04-16T16:53:36;13.00;64.40
17307;DHT22;8771;48.048;7.682;2023-04-16T16:58:38;13.00;64.40
17307;DHT22;8771;48.048;7.682;2023-04-16T17:03:41;13.00;64.40
17307;DHT22;8771;48.048;7.682;2023-04-16T17:08:43;13.10;64.30
17307;DHT22;8771;48.048;7.682;2023-04-16T17:13:45;13.10;64.30
17307;DHT22;8771;48.048;7.682;2023-04-16T17:18:48;13.10;64.20
17307;DHT22;8771;48.048;7.682;2023-04-16T17:23:51;13.10;64.40
17307;DHT22;8771;48.048;7.682;2023-04-16T17:28:54;13.00;64.30
17307;DHT22;8771;48.048;7.682;2023-04-16T17:33:58;13.00;64.40
17307;DHT22;8771;48.048;7.682;2023-04-16T17:39:01;13.00;64.40
17307;DHT22;8771;48.048;7.682;2023-04-16T17:44:03;13.00;64.40
17307;DHT22;8771;48.048;7.682;2023-04-16T17:49:06;13.00;64.80
17307;DHT22;8771;48.048;7.682;2023-04-16T17:54:08;13.00;64.50
17307;DHT22;8771;48.048;7.682;2023-04-16T17:59:10;13.10;64.50
17307;DHT22;8771;48.048;7.682;2023-04-16T18:04:13;13.00;64.50
17307;DHT22;8771;48.048;7.682;2023-04-16T18:09:17;13.00;64.50
17307;DHT22;8771;48.048;7.682;2023-04-16T18:14:19;13.00;64.50
17307;DHT22;8771;48.048;7.682;2023-04-16T18:19:23;13.00;64.70
17307;DHT22;8771;48.048;7.682;2023-04-16T18:24:25;12.90;64.80
17307;DHT22;8771;48.048;7.682;2023-04-16T18:29:27;12.70;65.00
17307;DHT22;8771;48.048;7.682;2023-04-16T18:34:30;12.50;65.20
17307;DHT22;8771;48.048;7.682;2023-04-16T18:39:32;12.40;65.40
17307;DHT22;8771;48.048;7.682;2023-04-16T18:44:35;12.30;65.60
17307;DHT22;8771;48.048;7.682;2023-04-16T18:49:38;12.20;65.70
17307;DHT22;8771;48.048;7.682;2023-04-16T18:54:40;12.10;66.60
17307;DHT22;8771;48.048;7.682;2023-04-16T18:59:43;12.00;65.90
17307;DHT22;8771;48.048;7.682;2023-04-16T19:04:46;11.90;66.00
17307;DHT22;8771;48.048;7.682;2023-04-16T19:09:48;11.90;66.00
17307;DHT22;8771;48.048;7.682;2023-04-16T19:14:50;12.00;65.80
17307;DHT22;8771;48.048;7.682;2023-04-16T19:19:53;12.10;65.70
17307;DHT22;8771;48.048;7.682;2023-04-16T19:24:55;12.10;65.60
17307;DHT22;8771;48.048;7.682;2023-04-16T19:29:57;12.10;65.50
17307;DHT22;8771;48.048;7.682;2023-04-16T19:35:00;12.20;65.50
17307;DHT22;8771;48.048;7.682;2023-04-16T19:40:02;12.20;65.50
17307;DHT22;8771;48.048;7.682;2023-04-16T19:45:06;12.20;65.50
17307;DHT22;8771;48.048;7.682;2023-04-16T19:50:10;12.20;65.60
17307;DHT22;8771;48.048;7.682;2023-04-16T19:55:12;12.20;65.60
17307;DHT22;8771;48.048;7.682;2023-04-16T20:00:14;12.20;65.70
17307;DHT22;8771;48.048;7.682;2023-04-16T20:05:18;12.20;65.70
17307;DHT22;8771;48.048;7.682;2023-04-16T20:10:20;12.20;65.70
17307;DHT22;8771;48.048;7.682;2023-04-16T20:15:22;12.20;65.70
17307;DHT22;8771;48.048;7.682;2023-04-16T20:20:25;12.20;65.80
17307;DHT22;8771;48.048;7.682;2023-04-16T20:25:28;12.20;65.90
17307;DHT22;8771;48.048;7.682;2023-04-16T20:30:30;12.20;65.90
17307;DHT22;8771;48.048;7.682;2023-04-16T20:35:39;12.20;65.90
17307;DHT22;8771;48.048;7.682;2023-04-16T20:40:41;12.20;65.90
17307;DHT22;8771;48.048;7.682;2023-04-16T20:45:46;12.20;66.00
17307;DHT22;8771;48.048;7.682;2023-04-16T20:50:50;12.20;66.00
17307;DHT22;8771;48.048;7.682;2023-04-16T20:55:58;12.20;66.00
17307;DHT22;8771;48.048;7.682;2023-04-16T21:01:00;12.20;66.00
17307;DHT22;8771;48.048;7.682;2023-04-16T21:06:03;12.10;66.00
17307;DHT22;8771;48.048;7.682;2023-04-16T21:11:05;12.10;66.00
17307;DHT22;8771;48.048;7.682;2023-04-16T21:16:07;12.10;66.10
17307;DHT22;8771;48.048;7.682;2023-04-16T21:21:13;12.10;66.20
17307;DHT22;8771;48.048;7.682;2023-04-16T21:26:15;12.00;66.20
17307;DHT22;8771;48.048;7.682;2023-04-16T21:31:17;12.00;66.30
17307;DHT22;8771;48.048;7.682;2023-04-16T21:36:20;11.90;66.30
17307;DHT22;8771;48.048;7.682;2023-04-16T21:41:23;11.90;66.40
17307;DHT22;8771;48.048;7.682;2023-04-16T21:46:26;11.80;66.60
17307;DHT22;8771;48.048;7.682;2023-04-16T21:51:29;11.70;66.70
17307;DHT22;8771;48.048;7.682;2023-04-16T21:56:31;11.70;66.80
17307;DHT22;8771;48.048;7.682;2023-04-16T22:01:33;11.70;66.90
17307;DHT22;8771;48.048;7.682;2023-04-16T22:06:36;11.60;66.80
17307;DHT22;8771;48.048;7.682;2023-04-16T22:11:38;11.70;66.80
17307;DHT22;8771;48.048;7.682;2023-04-16T22:16:40;11.70;66.80
17307;DHT22;8771;48.048;7.682;2023-04-16T22:21:46;11.70;66.80
17307;DHT22;8771;48.048;7.682;2023-04-16T22:26:48;11.70;66.80
17307;DHT22;8771;48.048;7.682;2023-04-16T22:31:50;11.80;66.90
17307;DHT22;8771;48.048;7.682;2023-04-16T22:36:53;11.80;66.90
17307;DHT22;8771;48.048;7.682;2023-04-16T22:41:55;11.70;67.50
17307;DHT22;8771;48.048;7.682;2023-04-16T22:46:57;11.70;66.80
17307;DHT22;8771;48.048;7.682;2023-04-16T22:52:01;11.70;66.90
17307;DHT22;8771;48.048;7.682;2023-04-16T22:57:03;11.70;67.00
17307;DHT22;8771;48.048;7.682;2023-04-16T23:02:06;11.70;67.00
17307;DHT22;8771;48.048;7.682;2023-04-16T23:07:10;11.70;67.00
17307;DHT22;8771;48.048;7.682;2023-04-16T23:12:12;11.70;67.00
17307;DHT22;8771;48.048;7.682;2023-04-16T23:17:14;11.70;67.00
17307;DHT22;8771;48.048;7.682;2023-04-16T23:22:17;11.70;66.90
17307;DHT22;8771;48.048;7.682;2023-04-16T23:27:19;11.80;67.00
17307;DHT22;8771;48.048;7.682;2023-04-16T23:32:21;11.80;67.00
17307;DHT22;8771;48.048;7.682;2023-04-16T23:37:24;11.80;67.00
17307;DHT22;8771;48.048;7.682;2023-04-16T23:42:26;11.80;67.00
17307;DHT22;8771;48.048;7.682;2023-04-16T23:47:28;11.80;67.00
17307;DHT22;8771;48.048;7.682;2023-04-16T23:52:32;11.80;67.00
17307;DHT22;8771;48.048;7.682;2023-04-16T23:57:33;11.80;67.10
